sensor_id;sensor_type;location;lat;lon;timestamp;P1;durP1;ratioP1;P2;durP2;ratioP2
7181;SDS011;3632;42.724;23.298;2022-10-22T00:00:56;31.33;;;23.77;;
7181;SDS011;3632;42.724;23.298;2022-10-22T00:03:23;31.90;;;22.53;;
7181;SDS011;3632;42.724;23.298;2022-10-22T00:05:50;29.60;;;22.27;;
7181;SDS011;3632;42.724;23.298;2022-10-22T00:08:16;29.10;;;22.60;;
7181;SDS011;3632;42.724;23.298;2022-10-22T00:10:43;35.03;;;23.13;;
7181;SDS011;3632;42.724;23.298;2022-10-22T00:13:10;29.60;;;20.77;;
7181;SDS011;3632;42.724;23.298;2022-10-22T00:15:38;29.80;;;21.73;;
7181;SDS011;3632;42.724;23.298;2022-10-22T00:18:05;27.47;;;21.00;;
7181;SDS011;3632;42.724;23.298;2022-10-22T00:20:32;26.93;;;21.83;;
7181;SDS011;3632;42.724;23.298;2022-10-22T00:22:59;28.27;;;21.73;;
7181;SDS011;3632;42.724;23.298;2022-10-22T00:25:25;30.27;;;22.77;;
7181;SDS011;3632;42.724;23.298;2022-10-22T00:27:52;29.37;;;22.50;;
7181;SDS011;3632;42.724;23.298;2022-10-22T00:30:19;29.60;;;22.70;;
7181;SDS011;3632;42.724;23.298;2022-10-22T00:32:47;29.50;;;22.47;;
7181;SDS011;3632;42.724;23.298;2022-10-22T00:35:14;26.20;;;21.60;;
7181;SDS011;3632;42.724;23.298;2022-10-22T00:37:40;29.50;;;23.43;;
7181;SDS011;3632;42.724;23.298;2022-10-22T00:40:08;29.47;;;22.07;;
7181;SDS011;3632;42.724;23.298;2022-10-22T00:42:35;33.73;;;22.30;;
7181;SDS011;3632;42.724;23.298;2022-10-22T00:45:07;33.73;;;22.93;;
7181;SDS011;3632;42.724;23.298;2022-10-22T00:47:42;29.63;;;21.87;;
7181;SDS011;3632;42.724;23.298;2022-10-22T00:50:16;34.53;;;23.40;;
7181;SDS011;3632;42.724;23.298;2022-10-22T00:52:45;27.40;;;22.20;;
7181;SDS011;3632;42.724;23.298;2022-10-22T00:55:12;30.17;;;23.20;;
7181;SDS011;3632;42.724;23.298;2022-10-22T00:57:40;30.43;;;23.17;;
7181;SDS011;3632;42.724;23.298;2022-10-22T01:00:08;29.33;;;21.60;;
7181;SDS011;3632;42.724;23.298;2022-10-22T01:02:35;29.80;;;22.43;;
7181;SDS011;3632;42.724;23.298;2022-10-22T01:05:03;29.43;;;22.83;;
7181;SDS011;3632;42.724;23.298;2022-10-22T01:07:31;29.80;;;22.63;;
7181;SDS011;3632;42.724;23.298;2022-10-22T01:10:04;33.10;;;22.67;;
7181;SDS011;3632;42.724;23.298;2022-10-22T01:12:41;28.20;;;22.03;;
7181;SDS011;3632;42.724;23.298;2022-10-22T01:15:16;27.63;;;21.37;;
7181;SDS011;3632;42.724;23.298;2022-10-22T01:17:50;27.93;;;22.13;;
7181;SDS011;3632;42.724;23.298;2022-10-22T01:20:38;30.17;;;22.17;;
7181;SDS011;3632;42.724;23.298;2022-10-22T01:23:20;26.07;;;19.37;;
7181;SDS011;3632;42.724;23.298;2022-10-22T01:26:04;24.40;;;18.97;;
7181;SDS011;3632;42.724;23.298;2022-10-22T01:28:43;27.13;;;20.43;;
7181;SDS011;3632;42.724;23.298;2022-10-22T01:31:22;24.13;;;20.37;;
7181;SDS011;3632;42.724;23.298;2022-10-22T01:33:53;25.00;;;20.57;;
7181;SDS011;3632;42.724;23.298;2022-10-22T01:36:20;23.13;;;20.07;;
7181;SDS011;3632;42.724;23.298;2022-10-22T01:38:47;26.50;;;20.90;;
7181;SDS011;3632;42.724;23.298;2022-10-22T01:41:15;24.77;;;19.70;;
7181;SDS011;3632;42.724;23.298;2022-10-22T01:43:44;26.47;;;19.73;;
7181;SDS011;3632;42.724;23.298;2022-10-22T01:46:10;24.90;;;19.80;;
7181;SDS011;3632;42.724;23.298;2022-10-22T01:48:42;23.57;;;18.77;;
7181;SDS011;3632;42.724;23.298;2022-10-22T01:51:23;21.60;;;17.87;;
7181;SDS011;3632;42.724;23.298;2022-10-22T01:53:59;24.93;;;20.03;;
7181;SDS011;3632;42.724;23.298;2022-10-22T01:56:37;23.90;;;18.77;;
7181;SDS011;3632;42.724;23.298;2022-10-22T01:59:18;24.73;;;19.13;;
7181;SDS011;3632;42.724;23.298;2022-10-22T02:01:55;28.40;;;19.70;;
7181;SDS011;3632;42.724;23.298;2022-10-22T02:04:31;26.93;;;19.37;;
7181;SDS011;3632;42.724;23.298;2022-10-22T02:07:01;23.33;;;19.43;;
7181;SDS011;3632;42.724;23.298;2022-10-22T02:09:31;25.63;;;19.77;;
7181;SDS011;3632;42.724;23.298;2022-10-22T02:12:01;26.23;;;19.63;;
7181;SDS011;3632;42.724;23.298;2022-10-22T02:14:32;27.60;;;20.93;;
7181;SDS011;3632;42.724;23.298;2022-10-22T02:17:02;26.17;;;20.20;;
7181;SDS011;3632;42.724;23.298;2022-10-22T02:19:42;24.60;;;19.40;;
7181;SDS011;3632;42.724;23.298;2022-10-22T02:22:12;22.03;;;18.87;;
7181;SDS011;3632;42.724;23.298;2022-10-22T02:24:39;24.37;;;18.87;;
7181;SDS011;3632;42.724;23.298;2022-10-22T02:27:07;24.10;;;18.93;;
7181;SDS011;3632;42.724;23.298;2022-10-22T02:29:40;21.97;;;18.93;;
7181;SDS011;3632;42.724;23.298;2022-10-22T02:32:11;25.50;;;19.60;;
7181;SDS011;3632;42.724;23.298;2022-10-22T02:34:44;32.30;;;22.73;;
7181;SDS011;3632;42.724;23.298;2022-10-22T02:37:13;32.47;;;23.07;;
7181;SDS011;3632;42.724;23.298;2022-10-22T02:39:41;26.70;;;21.17;;
7181;SDS011;3632;42.724;23.298;2022-10-22T02:42:09;30.00;;;21.47;;
7181;SDS011;3632;42.724;23.298;2022-10-22T02:44:38;32.07;;;21.60;;
7181;SDS011;3632;42.724;23.298;2022-10-22T02:47:05;24.87;;;20.13;;
7181;SDS011;3632;42.724;23.298;2022-10-22T02:49:32;27.53;;;19.60;;
7181;SDS011;3632;42.724;23.298;2022-10-22T02:51:58;24.87;;;19.23;;
7181;SDS011;3632;42.724;23.298;2022-10-22T02:54:25;25.27;;;19.63;;
7181;SDS011;3632;42.724;23.298;2022-10-22T02:56:52;27.07;;;19.47;;
7181;SDS011;3632;42.724;23.298;2022-10-22T02:59:19;28.47;;;21.50;;
7181;SDS011;3632;42.724;23.298;2022-10-22T03:01:47;29.53;;;22.30;;
7181;SDS011;3632;42.724;23.298;2022-10-22T03:04:14;31.43;;;21.53;;
7181;SDS011;3632;42.724;23.298;2022-10-22T03:06:40;30.67;;;22.00;;
7181;SDS011;3632;42.724;23.298;2022-10-22T03:09:08;25.07;;;20.37;;
7181;SDS011;3632;42.724;23.298;2022-10-22T03:11:34;25.80;;;20.67;;
7181;SDS011;3632;42.724;23.298;2022-10-22T03:14:01;27.40;;;21.63;;
7181;SDS011;3632;42.724;23.298;2022-10-22T03:16:28;26.93;;;21.77;;
7181;SDS011;3632;42.724;23.298;2022-10-22T03:18:56;28.17;;;20.73;;
7181;SDS011;3632;42.724;23.298;2022-10-22T03:21:24;26.90;;;20.87;;
7181;SDS011;3632;42.724;23.298;2022-10-22T03:23:57;31.07;;;21.47;;
7181;SDS011;3632;42.724;23.298;2022-10-22T03:26:26;24.70;;;20.77;;
7181;SDS011;3632;42.724;23.298;2022-10-22T03:28:53;28.23;;;20.73;;
7181;SDS011;3632;42.724;23.298;2022-10-22T03:31:20;27.90;;;20.80;;
7181;SDS011;3632;42.724;23.298;2022-10-22T03:33:47;25.67;;;20.77;;
7181;SDS011;3632;42.724;23.298;2022-10-22T03:36:15;23.83;;;20.57;;
7181;SDS011;3632;42.724;23.298;2022-10-22T03:38:41;24.03;;;19.70;;
7181;SDS011;3632;42.724;23.298;2022-10-22T03:41:08;24.33;;;19.00;;
7181;SDS011;3632;42.724;23.298;2022-10-22T03:43:36;25.30;;;19.20;;
7181;SDS011;3632;42.724;23.298;2022-10-22T03:46:04;29.67;;;19.67;;
7181;SDS011;3632;42.724;23.298;2022-10-22T03:48:31;24.17;;;19.77;;
7181;SDS011;3632;42.724;23.298;2022-10-22T03:50:58;24.23;;;19.80;;
7181;SDS011;3632;42.724;23.298;2022-10-22T03:53:26;29.03;;;20.10;;
7181;SDS011;3632;42.724;23.298;2022-10-22T03:55:53;28.47;;;20.13;;
7181;SDS011;3632;42.724;23.298;2022-10-22T03:58:19;27.53;;;20.70;;
7181;SDS011;3632;42.724;23.298;2022-10-22T04:00:46;37.87;;;26.07;;
7181;SDS011;3632;42.724;23.298;2022-10-22T04:03:13;30.83;;;24.43;;
7181;SDS011;3632;42.724;23.298;2022-10-22T04:05:39;33.33;;;26.27;;
7181;SDS011;3632;42.724;23.298;2022-10-22T04:08:06;31.87;;;24.63;;
7181;SDS011;3632;42.724;23.298;2022-10-22T04:10:34;30.60;;;22.33;;
7181;SDS011;3632;42.724;23.298;2022-10-22T04:13:01;31.43;;;22.80;;
7181;SDS011;3632;42.724;23.298;2022-10-22T04:15:28;28.93;;;22.83;;
7181;SDS011;3632;42.724;23.298;2022-10-22T04:17:54;29.77;;;21.60;;
7181;SDS011;3632;42.724;23.298;2022-10-22T04:20:21;28.97;;;22.43;;
7181;SDS011;3632;42.724;23.298;2022-10-22T04:22:48;29.53;;;22.63;;
7181;SDS011;3632;42.724;23.298;2022-10-22T04:25:14;27.57;;;21.80;;
7181;SDS011;3632;42.724;23.298;2022-10-22T04:27:43;30.10;;;22.00;;
7181;SDS011;3632;42.724;23.298;2022-10-22T04:30:10;31.20;;;22.90;;
7181;SDS011;3632;42.724;23.298;2022-10-22T04:32:37;29.10;;;21.80;;
7181;SDS011;3632;42.724;23.298;2022-10-22T04:35:04;29.17;;;21.50;;
7181;SDS011;3632;42.724;23.298;2022-10-22T04:37:31;26.80;;;22.67;;
7181;SDS011;3632;42.724;23.298;2022-10-22T04:39:58;30.30;;;22.47;;
7181;SDS011;3632;42.724;23.298;2022-10-22T04:42:25;28.73;;;22.07;;
7181;SDS011;3632;42.724;23.298;2022-10-22T04:44:53;29.83;;;23.27;;
7181;SDS011;3632;42.724;23.298;2022-10-22T04:47:20;28.60;;;22.77;;
7181;SDS011;3632;42.724;23.298;2022-10-22T04:49:46;31.60;;;21.93;;
7181;SDS011;3632;42.724;23.298;2022-10-22T04:52:13;30.43;;;22.20;;
7181;SDS011;3632;42.724;23.298;2022-10-22T04:54:40;27.23;;;21.53;;
7181;SDS011;3632;42.724;23.298;2022-10-22T04:57:06;27.87;;;21.07;;
7181;SDS011;3632;42.724;23.298;2022-10-22T04:59:33;27.83;;;20.93;;
7181;SDS011;3632;42.724;23.298;2022-10-22T05:02:01;28.87;;;21.73;;
7181;SDS011;3632;42.724;23.298;2022-10-22T05:04:28;29.47;;;20.87;;
7181;SDS011;3632;42.724;23.298;2022-10-22T05:06:55;29.93;;;21.60;;
7181;SDS011;3632;42.724;23.298;2022-10-22T05:09:21;34.17;;;24.27;;
7181;SDS011;3632;42.724;23.298;2022-10-22T05:11:49;43.73;;;31.07;;
7181;SDS011;3632;42.724;23.298;2022-10-22T05:14:18;39.60;;;27.73;;
7181;SDS011;3632;42.724;23.298;2022-10-22T05:16:47;31.77;;;23.53;;
7181;SDS011;3632;42.724;23.298;2022-10-22T05:19:16;35.37;;;24.87;;
7181;SDS011;3632;42.724;23.298;2022-10-22T05:21:45;35.83;;;24.70;;
7181;SDS011;3632;42.724;23.298;2022-10-22T05:24:12;32.73;;;24.77;;
7181;SDS011;3632;42.724;23.298;2022-10-22T05:26:38;32.63;;;23.80;;
7181;SDS011;3632;42.724;23.298;2022-10-22T05:29:05;29.77;;;23.73;;
7181;SDS011;3632;42.724;23.298;2022-10-22T05:31:32;34.00;;;23.43;;
7181;SDS011;3632;42.724;23.298;2022-10-22T05:33:59;36.67;;;23.60;;
7181;SDS011;3632;42.724;23.298;2022-10-22T05:36:27;27.90;;;22.30;;
7181;SDS011;3632;42.724;23.298;2022-10-22T05:38:54;31.17;;;22.97;;
7181;SDS011;3632;42.724;23.298;2022-10-22T05:41:22;31.97;;;23.10;;
7181;SDS011;3632;42.724;23.298;2022-10-22T05:43:50;45.17;;;24.73;;
7181;SDS011;3632;42.724;23.298;2022-10-22T05:46:19;32.83;;;24.27;;
7181;SDS011;3632;42.724;23.298;2022-10-22T05:48:48;39.70;;;26.50;;
7181;SDS011;3632;42.724;23.298;2022-10-22T05:51:15;42.77;;;26.30;;
7181;SDS011;3632;42.724;23.298;2022-10-22T05:53:44;36.67;;;26.57;;
7181;SDS011;3632;42.724;23.298;2022-10-22T05:56:12;43.00;;;28.00;;
7181;SDS011;3632;42.724;23.298;2022-10-22T05:58:40;41.93;;;28.90;;
7181;SDS011;3632;42.724;23.298;2022-10-22T06:01:08;42.47;;;29.83;;
7181;SDS011;3632;42.724;23.298;2022-10-22T06:03:38;40.40;;;29.67;;
7181;SDS011;3632;42.724;23.298;2022-10-22T06:06:06;51.37;;;31.03;;
7181;SDS011;3632;42.724;23.298;2022-10-22T06:08:44;46.73;;;29.10;;
7181;SDS011;3632;42.724;23.298;2022-10-22T06:11:11;45.03;;;30.27;;
7181;SDS011;3632;42.724;23.298;2022-10-22T06:13:38;47.80;;;33.93;;
7181;SDS011;3632;42.724;23.298;2022-10-22T06:16:05;48.00;;;29.67;;
7181;SDS011;3632;42.724;23.298;2022-10-22T06:18:32;43.40;;;31.17;;
7181;SDS011;3632;42.724;23.298;2022-10-22T06:21:02;43.60;;;32.03;;
7181;SDS011;3632;42.724;23.298;2022-10-22T06:23:30;41.00;;;29.17;;
7181;SDS011;3632;42.724;23.298;2022-10-22T06:25:58;39.20;;;30.13;;
7181;SDS011;3632;42.724;23.298;2022-10-22T06:28:25;37.27;;;28.93;;
7181;SDS011;3632;42.724;23.298;2022-10-22T06:30:52;32.80;;;27.90;;
7181;SDS011;3632;42.724;23.298;2022-10-22T06:33:19;37.40;;;31.67;;
7181;SDS011;3632;42.724;23.298;2022-10-22T06:35:46;42.17;;;32.70;;
7181;SDS011;3632;42.724;23.298;2022-10-22T06:38:12;52.47;;;37.73;;
7181;SDS011;3632;42.724;23.298;2022-10-22T06:40:39;56.07;;;40.13;;
7181;SDS011;3632;42.724;23.298;2022-10-22T06:43:08;53.00;;;43.00;;
7181;SDS011;3632;42.724;23.298;2022-10-22T06:45:36;52.20;;;44.37;;
7181;SDS011;3632;42.724;23.298;2022-10-22T06:48:02;44.47;;;34.30;;
7181;SDS011;3632;42.724;23.298;2022-10-22T06:50:30;41.03;;;33.47;;
7181;SDS011;3632;42.724;23.298;2022-10-22T06:52:57;41.40;;;29.77;;
7181;SDS011;3632;42.724;23.298;2022-10-22T06:55:24;37.67;;;28.53;;
7181;SDS011;3632;42.724;23.298;2022-10-22T06:57:50;32.50;;;26.37;;
7181;SDS011;3632;42.724;23.298;2022-10-22T07:00:19;36.20;;;30.83;;
7181;SDS011;3632;42.724;23.298;2022-10-22T07:02:49;36.50;;;29.37;;
7181;SDS011;3632;42.724;23.298;2022-10-22T07:05:16;35.33;;;30.43;;
7181;SDS011;3632;42.724;23.298;2022-10-22T07:07:43;42.97;;;31.50;;
7181;SDS011;3632;42.724;23.298;2022-10-22T07:10:10;46.77;;;40.73;;
7181;SDS011;3632;42.724;23.298;2022-10-22T07:12:37;45.37;;;39.87;;
7181;SDS011;3632;42.724;23.298;2022-10-22T07:15:04;44.73;;;38.60;;
7181;SDS011;3632;42.724;23.298;2022-10-22T07:17:32;51.63;;;41.20;;
7181;SDS011;3632;42.724;23.298;2022-10-22T07:19:59;53.17;;;40.73;;
7181;SDS011;3632;42.724;23.298;2022-10-22T07:22:26;47.60;;;40.33;;
7181;SDS011;3632;42.724;23.298;2022-10-22T07:24:52;47.77;;;40.40;;
7181;SDS011;3632;42.724;23.298;2022-10-22T07:27:19;42.03;;;32.97;;
7181;SDS011;3632;42.724;23.298;2022-10-22T07:29:46;36.27;;;29.10;;
7181;SDS011;3632;42.724;23.298;2022-10-22T07:32:12;36.63;;;29.40;;
7181;SDS011;3632;42.724;23.298;2022-10-22T07:34:41;38.03;;;30.63;;
7181;SDS011;3632;42.724;23.298;2022-10-22T07:37:07;35.10;;;29.67;;
7181;SDS011;3632;42.724;23.298;2022-10-22T07:39:34;34.33;;;28.70;;
7181;SDS011;3632;42.724;23.298;2022-10-22T07:42:01;32.87;;;27.90;;
7181;SDS011;3632;42.724;23.298;2022-10-22T07:44:28;33.97;;;28.30;;
7181;SDS011;3632;42.724;23.298;2022-10-22T07:46:54;38.80;;;30.40;;
7181;SDS011;3632;42.724;23.298;2022-10-22T07:49:21;43.73;;;30.53;;
7181;SDS011;3632;42.724;23.298;2022-10-22T07:51:49;33.93;;;27.60;;
7181;SDS011;3632;42.724;23.298;2022-10-22T07:54:16;31.13;;;25.83;;
7181;SDS011;3632;42.724;23.298;2022-10-22T07:56:43;32.13;;;26.13;;
7181;SDS011;3632;42.724;23.298;2022-10-22T07:59:10;29.50;;;25.43;;
7181;SDS011;3632;42.724;23.298;2022-10-22T08:01:36;32.20;;;25.67;;
7181;SDS011;3632;42.724;23.298;2022-10-22T08:04:03;33.13;;;26.43;;
7181;SDS011;3632;42.724;23.298;2022-10-22T08:06:32;36.37;;;27.77;;
7181;SDS011;3632;42.724;23.298;2022-10-22T08:09:01;33.33;;;26.47;;
7181;SDS011;3632;42.724;23.298;2022-10-22T08:11:28;34.97;;;27.30;;
7181;SDS011;3632;42.724;23.298;2022-10-22T08:13:55;30.07;;;25.37;;
7181;SDS011;3632;42.724;23.298;2022-10-22T08:16:21;27.33;;;23.40;;
7181;SDS011;3632;42.724;23.298;2022-10-22T08:18:49;27.83;;;22.60;;
7181;SDS011;3632;42.724;23.298;2022-10-22T08:21:16;33.10;;;23.57;;
7181;SDS011;3632;42.724;23.298;2022-10-22T08:23:42;29.93;;;23.53;;
7181;SDS011;3632;42.724;23.298;2022-10-22T08:26:10;26.37;;;22.43;;
7181;SDS011;3632;42.724;23.298;2022-10-22T08:28:38;26.97;;;21.47;;
7181;SDS011;3632;42.724;23.298;2022-10-22T08:31:05;31.43;;;21.83;;
7181;SDS011;3632;42.724;23.298;2022-10-22T08:33:33;25.10;;;19.90;;
7181;SDS011;3632;42.724;23.298;2022-10-22T08:35:59;29.13;;;20.53;;
7181;SDS011;3632;42.724;23.298;2022-10-22T08:38:26;22.13;;;19.67;;
7181;SDS011;3632;42.724;23.298;2022-10-22T08:40:56;25.73;;;19.47;;
7181;SDS011;3632;42.724;23.298;2022-10-22T08:43:36;23.73;;;20.17;;
7181;SDS011;3632;42.724;23.298;2022-10-22T08:46:18;23.80;;;18.90;;
7181;SDS011;3632;42.724;23.298;2022-10-22T08:48:56;20.60;;;18.17;;
7181;SDS011;3632;42.724;23.298;2022-10-22T08:51:26;22.83;;;18.77;;
7181;SDS011;3632;42.724;23.298;2022-10-22T08:54:06;24.57;;;19.30;;
7181;SDS011;3632;42.724;23.298;2022-10-22T08:56:43;20.63;;;17.27;;
7181;SDS011;3632;42.724;23.298;2022-10-22T08:59:16;25.37;;;17.17;;
7181;SDS011;3632;42.724;23.298;2022-10-22T09:01:49;23.17;;;17.27;;
7181;SDS011;3632;42.724;23.298;2022-10-22T09:04:21;20.67;;;17.40;;
7181;SDS011;3632;42.724;23.298;2022-10-22T09:06:52;22.00;;;16.67;;
7181;SDS011;3632;42.724;23.298;2022-10-22T09:09:20;19.23;;;16.10;;
7181;SDS011;3632;42.724;23.298;2022-10-22T09:11:51;20.50;;;15.70;;
7181;SDS011;3632;42.724;23.298;2022-10-22T09:14:21;16.80;;;14.90;;
7181;SDS011;3632;42.724;23.298;2022-10-22T09:16:55;20.33;;;15.07;;
7181;SDS011;3632;42.724;23.298;2022-10-22T09:19:48;18.73;;;15.33;;
7181;SDS011;3632;42.724;23.298;2022-10-22T09:22:26;20.53;;;14.93;;
7181;SDS011;3632;42.724;23.298;2022-10-22T09:25:01;24.47;;;14.80;;
7181;SDS011;3632;42.724;23.298;2022-10-22T09:27:39;22.40;;;15.07;;
7181;SDS011;3632;42.724;23.298;2022-10-22T09:30:09;18.20;;;14.97;;
7181;SDS011;3632;42.724;23.298;2022-10-22T09:32:40;20.47;;;15.27;;
7181;SDS011;3632;42.724;23.298;2022-10-22T09:35:08;16.37;;;14.57;;
7181;SDS011;3632;42.724;23.298;2022-10-22T09:37:36;19.17;;;15.97;;
7181;SDS011;3632;42.724;23.298;2022-10-22T09:40:13;25.37;;;16.37;;
7181;SDS011;3632;42.724;23.298;2022-10-22T09:42:40;22.93;;;18.23;;
7181;SDS011;3632;42.724;23.298;2022-10-22T09:45:13;26.33;;;19.33;;
7181;SDS011;3632;42.724;23.298;2022-10-22T09:47:43;24.03;;;19.57;;
7181;SDS011;3632;42.724;23.298;2022-10-22T09:50:20;26.70;;;20.60;;
7181;SDS011;3632;42.724;23.298;2022-10-22T09:52:59;27.07;;;19.27;;
7181;SDS011;3632;42.724;23.298;2022-10-22T09:55:29;25.97;;;19.07;;
7181;SDS011;3632;42.724;23.298;2022-10-22T09:57:57;27.10;;;18.30;;
7181;SDS011;3632;42.724;23.298;2022-10-22T10:00:28;24.77;;;19.30;;
7181;SDS011;3632;42.724;23.298;2022-10-22T10:02:56;21.07;;;18.77;;
7181;SDS011;3632;42.724;23.298;2022-10-22T10:05:26;24.07;;;17.77;;
7181;SDS011;3632;42.724;23.298;2022-10-22T10:07:54;20.70;;;18.20;;
7181;SDS011;3632;42.724;23.298;2022-10-22T10:10:26;25.27;;;18.57;;
7181;SDS011;3632;42.724;23.298;2022-10-22T10:13:02;23.27;;;18.13;;
7181;SDS011;3632;42.724;23.298;2022-10-22T10:15:44;22.13;;;16.83;;
7181;SDS011;3632;42.724;23.298;2022-10-22T10:18:22;19.00;;;16.73;;
7181;SDS011;3632;42.724;23.298;2022-10-22T10:21:00;21.73;;;16.60;;
7181;SDS011;3632;42.724;23.298;2022-10-22T10:23:32;24.43;;;18.47;;
7181;SDS011;3632;42.724;23.298;2022-10-22T10:26:06;23.87;;;18.23;;
7181;SDS011;3632;42.724;23.298;2022-10-22T10:28:45;19.87;;;15.50;;
7181;SDS011;3632;42.724;23.298;2022-10-22T10:31:24;19.27;;;15.03;;
7181;SDS011;3632;42.724;23.298;2022-10-22T10:34:03;21.37;;;16.93;;
7181;SDS011;3632;42.724;23.298;2022-10-22T10:36:42;23.20;;;18.10;;
7181;SDS011;3632;42.724;23.298;2022-10-22T10:39:17;20.10;;;17.90;;
7181;SDS011;3632;42.724;23.298;2022-10-22T10:41:50;21.13;;;17.43;;
7181;SDS011;3632;42.724;23.298;2022-10-22T10:44:25;25.33;;;17.50;;
7181;SDS011;3632;42.724;23.298;2022-10-22T10:47:11;17.83;;;15.93;;
7181;SDS011;3632;42.724;23.298;2022-10-22T10:49:45;17.87;;;15.97;;
7181;SDS011;3632;42.724;23.298;2022-10-22T10:52:14;20.93;;;17.93;;
7181;SDS011;3632;42.724;23.298;2022-10-22T10:54:43;22.03;;;17.20;;
7181;SDS011;3632;42.724;23.298;2022-10-22T10:57:19;25.97;;;20.93;;
7181;SDS011;3632;42.724;23.298;2022-10-22T11:00:00;19.77;;;16.97;;
7181;SDS011;3632;42.724;23.298;2022-10-22T11:05:47;18.90;;;15.37;;
7181;SDS011;3632;42.724;23.298;2022-10-22T11:08:20;20.53;;;15.90;;
7181;SDS011;3632;42.724;23.298;2022-10-22T11:10:50;19.47;;;15.70;;
7181;SDS011;3632;42.724;23.298;2022-10-22T11:13:21;18.00;;;15.23;;
7181;SDS011;3632;42.724;23.298;2022-10-22T11:15:55;19.97;;;15.37;;
7181;SDS011;3632;42.724;23.298;2022-10-22T11:18:28;21.27;;;16.40;;
7181;SDS011;3632;42.724;23.298;2022-10-22T11:21:09;17.10;;;14.87;;
7181;SDS011;3632;42.724;23.298;2022-10-22T11:23:45;25.40;;;21.83;;
7181;SDS011;3632;42.724;23.298;2022-10-22T11:26:18;26.63;;;19.40;;
7181;SDS011;3632;42.724;23.298;2022-10-22T11:28:57;19.37;;;16.83;;
7181;SDS011;3632;42.724;23.298;2022-10-22T11:31:27;17.47;;;14.40;;
7181;SDS011;3632;42.724;23.298;2022-10-22T11:33:57;20.70;;;14.47;;
7181;SDS011;3632;42.724;23.298;2022-10-22T11:36:33;18.37;;;14.30;;
7181;SDS011;3632;42.724;23.298;2022-10-22T11:39:02;19.87;;;14.70;;
7181;SDS011;3632;42.724;23.298;2022-10-22T11:41:30;18.90;;;14.60;;
7181;SDS011;3632;42.724;23.298;2022-10-22T11:44:04;18.37;;;13.97;;
7181;SDS011;3632;42.724;23.298;2022-10-22T11:46:39;16.83;;;13.73;;
7181;SDS011;3632;42.724;23.298;2022-10-22T11:49:17;21.60;;;15.37;;
7181;SDS011;3632;42.724;23.298;2022-10-22T11:51:50;15.70;;;13.13;;
7181;SDS011;3632;42.724;23.298;2022-10-22T11:54:25;15.47;;;13.73;;
7181;SDS011;3632;42.724;23.298;2022-10-22T11:56:57;18.50;;;14.00;;
7181;SDS011;3632;42.724;23.298;2022-10-22T11:59:44;18.67;;;14.13;;
7181;SDS011;3632;42.724;23.298;2022-10-22T12:02:22;14.07;;;12.40;;
7181;SDS011;3632;42.724;23.298;2022-10-22T12:10:58;19.47;;;13.90;;
7181;SDS011;3632;42.724;23.298;2022-10-22T12:13:30;16.67;;;13.50;;
7181;SDS011;3632;42.724;23.298;2022-10-22T12:16:00;16.23;;;13.73;;
7181;SDS011;3632;42.724;23.298;2022-10-22T12:18:31;16.23;;;12.37;;
7181;SDS011;3632;42.724;23.298;2022-10-22T12:21:04;19.17;;;12.90;;
7181;SDS011;3632;42.724;23.298;2022-10-22T12:23:33;16.23;;;12.23;;
7181;SDS011;3632;42.724;23.298;2022-10-22T12:26:01;16.37;;;12.03;;
7181;SDS011;3632;42.724;23.298;2022-10-22T12:28:29;19.73;;;13.23;;
7181;SDS011;3632;42.724;23.298;2022-10-22T12:31:04;14.20;;;12.20;;
7181;SDS011;3632;42.724;23.298;2022-10-22T12:33:31;17.47;;;12.13;;
7181;SDS011;3632;42.724;23.298;2022-10-22T12:35:58;19.13;;;13.30;;
7181;SDS011;3632;42.724;23.298;2022-10-22T12:38:28;14.33;;;12.33;;
7181;SDS011;3632;42.724;23.298;2022-10-22T12:40:57;15.60;;;12.87;;
7181;SDS011;3632;42.724;23.298;2022-10-22T12:43:25;13.93;;;11.83;;
7181;SDS011;3632;42.724;23.298;2022-10-22T12:45:53;18.33;;;13.10;;
7181;SDS011;3632;42.724;23.298;2022-10-22T12:48:23;15.13;;;12.37;;
7181;SDS011;3632;42.724;23.298;2022-10-22T12:50:54;15.90;;;12.33;;
7181;SDS011;3632;42.724;23.298;2022-10-22T12:53:24;16.40;;;12.87;;
7181;SDS011;3632;42.724;23.298;2022-10-22T12:55:54;16.80;;;11.73;;
7181;SDS011;3632;42.724;23.298;2022-10-22T12:58:26;15.10;;;11.80;;
7181;SDS011;3632;42.724;23.298;2022-10-22T13:00:56;14.80;;;11.03;;
7181;SDS011;3632;42.724;23.298;2022-10-22T13:03:27;13.63;;;11.30;;
7181;SDS011;3632;42.724;23.298;2022-10-22T13:06:10;16.20;;;11.53;;
7181;SDS011;3632;42.724;23.298;2022-10-22T13:08:38;14.90;;;10.67;;
7181;SDS011;3632;42.724;23.298;2022-10-22T13:11:08;16.93;;;11.30;;
7181;SDS011;3632;42.724;23.298;2022-10-22T13:13:42;12.60;;;11.27;;
7181;SDS011;3632;42.724;23.298;2022-10-22T13:16:13;14.53;;;11.00;;
7181;SDS011;3632;42.724;23.298;2022-10-22T13:18:45;15.50;;;11.50;;
7181;SDS011;3632;42.724;23.298;2022-10-22T13:21:23;13.47;;;10.40;;
7181;SDS011;3632;42.724;23.298;2022-10-22T13:23:52;19.03;;;11.33;;
7181;SDS011;3632;42.724;23.298;2022-10-22T13:26:22;17.38;;;10.80;;
7181;SDS011;3632;42.724;23.298;2022-10-22T13:28:55;15.30;;;12.57;;
7181;SDS011;3632;42.724;23.298;2022-10-22T13:31:25;13.70;;;10.30;;
7181;SDS011;3632;42.724;23.298;2022-10-22T13:33:56;16.27;;;10.63;;
7181;SDS011;3632;42.724;23.298;2022-10-22T13:36:25;17.33;;;10.30;;
7181;SDS011;3632;42.724;23.298;2022-10-22T13:38:52;12.23;;;9.85;;
7181;SDS011;3632;42.724;23.298;2022-10-22T13:41:20;16.07;;;10.40;;
7181;SDS011;3632;42.724;23.298;2022-10-22T13:43:50;13.63;;;9.90;;
7181;SDS011;3632;42.724;23.298;2022-10-22T13:46:17;12.63;;;10.10;;
7181;SDS011;3632;42.724;23.298;2022-10-22T13:48:44;18.37;;;10.80;;
7181;SDS011;3632;42.724;23.298;2022-10-22T13:51:13;17.20;;;11.47;;
7181;SDS011;3632;42.724;23.298;2022-10-22T13:53:42;18.03;;;10.80;;
7181;SDS011;3632;42.724;23.298;2022-10-22T13:56:12;17.10;;;10.37;;
7181;SDS011;3632;42.724;23.298;2022-10-22T13:58:42;18.97;;;11.30;;
7181;SDS011;3632;42.724;23.298;2022-10-22T14:01:14;16.53;;;11.17;;
7181;SDS011;3632;42.724;23.298;2022-10-22T14:03:45;17.80;;;11.23;;
7181;SDS011;3632;42.724;23.298;2022-10-22T14:06:13;14.33;;;10.87;;
7181;SDS011;3632;42.724;23.298;2022-10-22T14:08:41;15.10;;;10.70;;
7181;SDS011;3632;42.724;23.298;2022-10-22T14:11:10;26.00;;;13.50;;
7181;SDS011;3632;42.724;23.298;2022-10-22T14:13:37;13.57;;;10.43;;
7181;SDS011;3632;42.724;23.298;2022-10-22T14:16:06;12.67;;;10.67;;
7181;SDS011;3632;42.724;23.298;2022-10-22T14:18:40;19.73;;;10.63;;
7181;SDS011;3632;42.724;23.298;2022-10-22T14:21:07;13.10;;;9.53;;
7181;SDS011;3632;42.724;23.298;2022-10-22T14:23:34;13.63;;;9.73;;
7181;SDS011;3632;42.724;23.298;2022-10-22T14:26:01;14.60;;;9.47;;
7181;SDS011;3632;42.724;23.298;2022-10-22T14:28:28;17.60;;;10.50;;
7181;SDS011;3632;42.724;23.298;2022-10-22T14:30:55;12.90;;;10.40;;
7181;SDS011;3632;42.724;23.298;2022-10-22T14:33:24;15.87;;;9.80;;
7181;SDS011;3632;42.724;23.298;2022-10-22T14:35:52;22.93;;;12.53;;
7181;SDS011;3632;42.724;23.298;2022-10-22T14:38:19;19.07;;;9.90;;
7181;SDS011;3632;42.724;23.298;2022-10-22T14:40:47;13.20;;;8.97;;
7181;SDS011;3632;42.724;23.298;2022-10-22T14:43:15;15.37;;;9.60;;
7181;SDS011;3632;42.724;23.298;2022-10-22T14:45:45;13.13;;;9.60;;
7181;SDS011;3632;42.724;23.298;2022-10-22T14:48:12;12.53;;;9.17;;
7181;SDS011;3632;42.724;23.298;2022-10-22T14:50:41;13.60;;;9.57;;
7181;SDS011;3632;42.724;23.298;2022-10-22T14:53:08;12.70;;;9.20;;
7181;SDS011;3632;42.724;23.298;2022-10-22T14:55:35;15.57;;;9.63;;
7181;SDS011;3632;42.724;23.298;2022-10-22T14:58:02;15.73;;;10.07;;
7181;SDS011;3632;42.724;23.298;2022-10-22T15:00:29;17.80;;;9.53;;